Time;durP1;ratioP1;P1;durP2;ratioP2;P2;SDS_P1;SDS_P2;PMS_P1;PMS_P2;Temp;Humidity;BMP_temperature;BMP_pressure;BME280_temperature;BME280_humidity;BME280_pressure;Samples;Min_cycle;Max_cycle;Signal;HPM_P1;HPM_P2
2023/08/08 00:00:29;;;;;;;;;3.00;3.00;;;;;;;;5053165;28;51156;-60
2023/08/08 00:02:54;;;;;;;;;2.00;2.00;;;;;;;;5053254;28;50968;-60
2023/08/08 00:05:19;;;;;;;;;3.00;2.00;;;;;;;;5051883;28;51708;-60
2023/08/08 00:07:45;;;;;;;;;2.00;1.67;;;;;;;;5052725;28;51135;-60
2023/08/08 00:10:10;;;;;;;;;3.67;3.33;;;;;;;;5052884;28;51043;-60
2023/08/08 00:12:35;;;;;;;;;0.00;0.00;;;;;;;;5053318;28;50973;-60
2023/08/08 00:15:00;;;;;;;;;3.00;3.00;;;;;;;;5052604;28;52017;-60
2023/08/08 00:17:26;;;;;;;;;3.00;3.00;;;;;;;;5052947;28;50970;-60
2023/08/08 00:19:51;;;;;;;;;2.33;2.33;;;;;;;;5046920;28;51284;-60
2023/08/08 00:22:16;;;;;;;;;3.00;3.00;;;;;;;;5049146;28;51523;-61
2023/08/08 00:24:41;;;;;;;;;3.67;3.67;;;;;;;;5052301;28;51968;-60
2023/08/08 00:27:06;;;;;;;;;4.00;4.00;;;;;;;;5052100;28;50970;-61
2023/08/08 00:29:31;;;;;;;;;3.67;3.67;;;;;;;;5052509;28;51108;-61
2023/08/08 00:31:57;;;;;;;;;2.33;2.33;;;;;;;;5052695;28;51142;-60
2023/08/08 00:34:22;;;;;;;;;3.00;3.00;;;;;;;;5052435;28;51817;-59
2023/08/08 00:36:47;;;;;;;;;2.00;2.00;;;;;;;;5038707;28;51321;-59
2023/08/08 00:39:12;;;;;;;;;3.33;3.00;;;;;;;;5052551;28;51188;-60
2023/08/08 00:41:37;;;;;;;;;3.67;3.67;;;;;;;;5052638;28;50917;-60
2023/08/08 00:44:03;;;;;;;;;3.67;3.33;;;;;;;;5052362;28;51983;-60
2023/08/08 00:46:28;;;;;;;;;5.00;3.33;;;;;;;;5067954;28;51054;-60
2023/08/08 00:48:53;;;;;;;;;4.33;3.00;;;;;;;;5052521;28;51084;-59
2023/08/08 00:51:19;;;;;;;;;3.00;2.00;;;;;;;;5051860;28;50994;-60
2023/08/08 00:53:45;;;;;;;;;4.33;3.67;;;;;;;;5038875;28;51506;-59
2023/08/08 00:56:13;;;;;;;;;4.33;4.00;;;;;;;;5052148;28;51183;-60
2023/08/08 00:58:39;;;;;;;;;3.33;3.33;;;;;;;;5052229;28;50977;-59
2023/08/08 01:01:04;;;;;;;;;4.33;3.00;;;;;;;;5051982;28;51346;-60
2023/08/08 01:03:30;;;;;;;;;3.33;3.33;;;;;;;;5052078;28;51802;-60
2023/08/08 01:06:19;;;;;;;;;2.33;2.33;;;;;;;;5052063;28;50974;-60
2023/08/08 01:08:55;;;;;;;;;3.67;3.67;;;;;;;;5051903;28;50942;-60
2023/08/08 01:11:21;;;;;;;;;3.00;3.00;;;;;;;;5038238;28;51340;-59
2023/08/08 01:13:46;;;;;;;;;4.33;3.67;;;;;;;;5051621;28;51843;-60
2023/08/08 01:16:12;;;;;;;;;5.33;3.00;;;;;;;;5051721;28;51118;-60
2023/08/08 01:18:38;;;;;;;;;2.67;2.67;;;;;;;;5051980;28;51126;-59
2023/08/08 01:21:03;;;;;;;;;2.67;2.67;;;;;;;;5051777;28;51069;-59
2023/08/08 01:23:33;;;;;;;;;3.67;3.67;;;;;;;;5050718;28;51835;-59
2023/08/08 01:25:59;;;;;;;;;3.33;2.33;;;;;;;;5040505;28;51034;-60
2023/08/08 01:28:24;;;;;;;;;2.67;1.67;;;;;;;;5049181;28;51140;-59
2023/08/08 01:30:50;;;;;;;;;4.00;3.67;;;;;;;;5052153;28;50950;-60
2023/08/08 01:33:15;;;;;;;;;3.00;3.00;;;;;;;;5051430;28;52003;-60
2023/08/08 01:35:43;;;;;;;;;3.00;2.67;;;;;;;;5053443;28;50999;-59
2023/08/08 01:38:11;;;;;;;;;3.33;3.33;;;;;;;;5055067;28;50995;-59
2023/08/08 01:40:38;;;;;;;;;3.67;3.00;;;;;;;;5055428;28;50910;-60
2023/08/08 01:43:04;;;;;;;;;3.00;2.67;;;;;;;;5053719;28;52100;-59
2023/08/08 01:45:31;;;;;;;;;2.67;2.67;;;;;;;;5054893;28;51030;-59
2023/08/08 01:47:57;;;;;;;;;2.00;2.00;;;;;;;;5055335;28;50985;-60
2023/08/08 01:50:22;;;;;;;;;1.67;1.67;;;;;;;;5054914;28;51240;-60
2023/08/08 01:52:47;;;;;;;;;3.00;3.00;;;;;;;;5053281;28;51022;-60
2023/08/08 01:55:13;;;;;;;;;2.67;2.67;;;;;;;;5054682;28;50992;-60
2023/08/08 01:57:38;;;;;;;;;2.67;2.67;;;;;;;;5054720;28;51041;-60
2023/08/08 02:00:05;;;;;;;;;2.67;2.33;;;;;;;;5054054;28;51043;-60
2023/08/08 02:02:30;;;;;;;;;2.67;2.67;;;;;;;;5054375;28;51887;-60
2023/08/08 02:04:56;;;;;;;;;2.67;2.67;;;;;;;;5054507;28;51163;-60
2023/08/08 02:07:21;;;;;;;;;3.33;3.33;;;;;;;;5054521;28;51035;-59
2023/08/08 02:09:46;;;;;;;;;3.00;3.00;;;;;;;;5054830;28;51167;-59
2023/08/08 02:12:11;;;;;;;;;3.33;3.00;;;;;;;;5054601;28;50997;-59
2023/08/08 02:14:37;;;;;;;;;2.00;2.00;;;;;;;;5054574;28;51111;-59
2023/08/08 02:17:02;;;;;;;;;3.00;3.00;;;;;;;;5054705;28;50914;-60
2023/08/08 02:19:27;;;;;;;;;2.00;1.67;;;;;;;;5053751;28;50946;-59
2023/08/08 02:21:52;;;;;;;;;3.00;2.33;;;;;;;;5050814;28;51090;-59
2023/08/08 02:24:17;;;;;;;;;3.33;2.67;;;;;;;;5054040;28;51238;-59
2023/08/08 02:26:43;;;;;;;;;2.33;2.00;;;;;;;;5054726;28;50962;-61
2023/08/08 02:29:08;;;;;;;;;2.00;2.00;;;;;;;;5054451;28;51103;-60
2023/08/08 02:31:33;;;;;;;;;3.00;2.00;;;;;;;;5054455;28;51048;-60
2023/08/08 02:33:58;;;;;;;;;2.67;2.67;;;;;;;;5069142;28;51059;-60
2023/08/08 02:36:23;;;;;;;;;2.33;2.33;;;;;;;;5054327;28;50913;-61
2023/08/08 02:38:53;;;;;;;;;2.33;1.33;;;;;;;;5054240;28;50999;-59
2023/08/08 02:41:18;;;;;;;;;3.00;2.67;;;;;;;;5054105;28;51810;-59
2023/08/08 02:43:43;;;;;;;;;2.33;1.67;;;;;;;;5054232;28;50966;-60
2023/08/08 02:46:08;;;;;;;;;2.00;2.00;;;;;;;;5054466;28;51041;-59
2023/08/08 02:48:33;;;;;;;;;2.33;2.33;;;;;;;;5054463;28;51120;-59
2023/08/08 02:50:59;;;;;;;;;1.67;1.67;;;;;;;;5040281;28;53034;-60
2023/08/08 02:53:24;;;;;;;;;1.67;1.67;;;;;;;;5053971;28;50848;-60
2023/08/08 02:55:49;;;;;;;;;2.33;2.33;;;;;;;;5054046;28;50939;-59
2023/08/08 02:58:14;;;;;;;;;2.33;1.67;;;;;;;;5054027;28;51195;-59
2023/08/08 03:00:39;;;;;;;;;5.00;3.00;;;;;;;;5053667;28;50952;-59
2023/08/08 03:03:04;;;;;;;;;2.67;2.67;;;;;;;;5053928;28;51238;-59
2023/08/08 03:05:30;;;;;;;;;2.67;2.67;;;;;;;;5053801;28;51048;-59
2023/08/08 03:07:55;;;;;;;;;2.67;2.67;;;;;;;;5047005;28;51338;-59
2023/08/08 03:10:20;;;;;;;;;4.33;4.33;;;;;;;;5053286;28;51108;-59
2023/08/08 03:12:45;;;;;;;;;3.00;3.00;;;;;;;;5053650;28;51030;-59
2023/08/08 03:15:11;;;;;;;;;3.33;2.33;;;;;;;;5053483;28;51067;-59
2023/08/08 03:17:36;;;;;;;;;4.00;3.33;;;;;;;;5069341;28;51434;-59
2023/08/08 03:20:05;;;;;;;;;1.67;1.67;;;;;;;;5053245;28;51685;-59
2023/08/08 03:22:30;;;;;;;;;3.00;3.00;;;;;;;;5053281;28;50965;-59
2023/08/08 03:24:55;;;;;;;;;1.33;1.33;;;;;;;;5042031;28;51025;-59
2023/08/08 03:27:21;;;;;;;;;2.33;2.33;;;;;;;;5050945;28;51165;-59
2023/08/08 03:29:46;;;;;;;;;3.00;3.00;;;;;;;;5052911;28;50930;-59
2023/08/08 03:32:11;;;;;;;;;3.00;3.00;;;;;;;;5053032;28;50844;-60
2023/08/08 03:34:36;;;;;;;;;2.00;2.00;;;;;;;;5053380;28;51022;-60
2023/08/08 03:37:01;;;;;;;;;2.67;2.00;;;;;;;;5053316;28;51084;-60
2023/08/08 03:39:27;;;;;;;;;3.00;3.00;;;;;;;;5053108;28;50971;-61
2023/08/08 03:41:52;;;;;;;;;2.67;2.00;;;;;;;;5052076;28;51197;-61
2023/08/08 03:44:17;;;;;;;;;2.00;2.00;;;;;;;;5053338;28;50844;-58
2023/08/08 03:46:42;;;;;;;;;4.00;2.67;;;;;;;;5053474;28;50883;-60
2023/08/08 03:49:07;;;;;;;;;2.67;2.67;;;;;;;;5052722;28;52307;-59
2023/08/08 03:51:33;;;;;;;;;1.67;1.67;;;;;;;;5053047;28;50985;-59
2023/08/08 03:53:58;;;;;;;;;3.00;3.00;;;;;;;;5052929;28;50864;-59
2023/08/08 03:56:23;;;;;;;;;3.00;3.00;;;;;;;;5051594;28;50945;-59
2023/08/08 03:58:48;;;;;;;;;2.33;2.00;;;;;;;;5051106;28;51918;-59
2023/08/08 04:01:13;;;;;;;;;3.33;3.00;;;;;;;;5052879;28;50987;-59
2023/08/08 04:03:39;;;;;;;;;2.33;2.33;;;;;;;;5052651;28;50897;-60
2023/08/08 04:06:04;;;;;;;;;2.67;2.67;;;;;;;;5052901;28;50899;-60
2023/08/08 04:08:29;;;;;;;;;3.33;3.33;;;;;;;;5051965;28;51721;-60
2023/08/08 04:10:54;;;;;;;;;3.67;3.00;;;;;;;;5052428;28;50883;-60
2023/08/08 04:13:20;;;;;;;;;2.33;2.33;;;;;;;;5052583;28;51166;-60
2023/08/08 04:15:45;;;;;;;;;2.33;2.33;;;;;;;;5052886;28;51070;-60
2023/08/08 04:18:10;;;;;;;;;2.33;2.00;;;;;;;;5038457;28;51624;-60
2023/08/08 04:20:35;;;;;;;;;2.67;2.33;;;;;;;;5052884;28;51091;-60
2023/08/08 04:23:01;;;;;;;;;0.67;0.67;;;;;;;;5047230;28;51165;-59
2023/08/08 04:25:27;;;;;;;;;1.67;1.67;;;;;;;;5052797;28;51002;-59
2023/08/08 04:27:52;;;;;;;;;4.00;4.00;;;;;;;;5052289;28;51929;-60
2023/08/08 04:30:17;;;;;;;;;4.33;3.33;;;;;;;;5052767;28;51002;-60
2023/08/08 04:32:42;;;;;;;;;5.00;4.00;;;;;;;;5051640;28;51156;-60
2023/08/08 04:35:08;;;;;;;;;4.00;3.00;;;;;;;;5052881;28;50983;-60
2023/08/08 04:37:33;;;;;;;;;4.33;4.00;;;;;;;;5052019;28;51389;-60
2023/08/08 04:39:58;;;;;;;;;2.00;2.00;;;;;;;;5052501;28;51066;-60
2023/08/08 04:42:23;;;;;;;;;3.00;3.00;;;;;;;;5052506;28;51358;-60
2023/08/08 04:44:48;;;;;;;;;1.67;1.67;;;;;;;;5052830;28;51096;-60
2023/08/08 04:47:13;;;;;;;;;4.00;3.00;;;;;;;;5052057;28;51802;-61
2023/08/08 04:49:39;;;;;;;;;3.33;1.67;;;;;;;;5051553;28;51008;-59
2023/08/08 04:52:04;;;;;;;;;3.67;3.00;;;;;;;;5052118;28;51068;-60
2023/08/08 04:54:29;;;;;;;;;3.00;3.00;;;;;;;;5051214;28;51250;-60
2023/08/08 04:56:54;;;;;;;;;5.00;2.67;;;;;;;;5051910;28;51065;-60
2023/08/08 04:59:20;;;;;;;;;3.67;3.33;;;;;;;;5051993;28;51096;-60
2023/08/08 05:01:45;;;;;;;;;2.00;1.33;;;;;;;;5052354;28;50881;-60
2023/08/08 05:04:10;;;;;;;;;1.67;1.67;;;;;;;;5052351;28;51173;-60
2023/08/08 05:06:35;;;;;;;;;3.67;3.00;;;;;;;;5051764;28;52120;-60
2023/08/08 05:09:00;;;;;;;;;6.67;6.00;;;;;;;;5050931;28;51107;-60
2023/08/08 05:11:26;;;;;;;;;3.00;3.00;;;;;;;;5054931;28;51067;-61
2023/08/08 05:13:51;;;;;;;;;2.67;2.33;;;;;;;;5054223;28;52130;-60
2023/08/08 05:16:16;;;;;;;;;3.00;3.00;;;;;;;;5055359;28;51019;-60
2023/08/08 05:18:44;;;;;;;;;4.67;4.33;;;;;;;;5055152;28;51036;-60
2023/08/08 05:21:09;;;;;;;;;3.33;3.33;;;;;;;;5055302;28;51296;-60
2023/08/08 05:23:34;;;;;;;;;2.67;2.33;;;;;;;;5043235;28;51096;-60
2023/08/08 05:25:59;;;;;;;;;2.67;2.67;;;;;;;;5052986;28;51847;-60
2023/08/08 05:28:25;;;;;;;;;2.33;2.00;;;;;;;;5055324;28;51118;-60
2023/08/08 05:30:50;;;;;;;;;5.67;5.00;;;;;;;;5055131;28;51146;-60
2023/08/08 05:33:15;;;;;;;;;3.67;3.33;;;;;;;;5055485;28;51101;-60
2023/08/08 05:35:40;;;;;;;;;3.33;2.67;;;;;;;;5054715;28;51047;-60
2023/08/08 05:38:05;;;;;;;;;4.00;3.67;;;;;;;;5054661;28;51124;-62
2023/08/08 05:40:33;;;;;;;;;2.00;2.00;;;;;;;;5054032;28;51093;-60
2023/08/08 05:42:58;;;;;;;;;3.33;3.00;;;;;;;;5055653;28;50974;-60
2023/08/08 05:45:24;;;;;;;;;3.00;3.00;;;;;;;;5054518;28;51032;-61
2023/08/08 05:47:49;;;;;;;;;2.00;2.00;;;;;;;;5054605;28;51005;-60
2023/08/08 05:50:14;;;;;;;;;3.33;3.00;;;;;;;;5054942;28;51015;-60
2023/08/08 05:52:39;;;;;;;;;3.00;3.00;;;;;;;;5054381;28;51116;-61
2023/08/08 05:55:05;;;;;;;;;2.00;2.00;;;;;;;;5052123;28;52837;-60
2023/08/08 05:57:30;;;;;;;;;4.33;3.67;;;;;;;;5052899;28;50911;-60
2023/08/08 05:59:55;;;;;;;;;4.00;4.00;;;;;;;;5054627;28;51074;-60
2023/08/08 06:02:21;;;;;;;;;2.67;2.67;;;;;;;;5052396;28;51103;-60
2023/08/08 06:04:46;;;;;;;;;4.00;4.00;;;;;;;;5053972;28;50912;-60
2023/08/08 06:07:11;;;;;;;;;13.75;13.75;;;;;;;;5054022;28;51009;-60
2023/08/08 06:09:37;;;;;;;;;4.33;4.00;;;;;;;;5053915;28;51021;-60
2023/08/08 06:12:02;;;;;;;;;3.67;3.00;;;;;;;;5041952;28;52077;-61
2023/08/08 06:14:28;;;;;;;;;3.00;3.00;;;;;;;;5049708;28;52637;-61
2023/08/08 06:16:53;;;;;;;;;11.00;10.00;;;;;;;;5054290;28;50879;-61
2023/08/08 06:19:18;;;;;;;;;2.67;2.00;;;;;;;;5054561;28;51055;-61
2023/08/08 06:21:43;;;;;;;;;2.67;2.67;;;;;;;;5054118;28;51073;-61
2023/08/08 06:24:08;;;;;;;;;2.00;2.00;;;;;;;;5053901;28;51033;-61
2023/08/08 06:26:36;;;;;;;;;3.00;3.00;;;;;;;;5049082;28;51067;-61
2023/08/08 06:29:01;;;;;;;;;3.00;3.00;;;;;;;;5045828;28;51178;-61
2023/08/08 06:31:26;;;;;;;;;2.00;2.00;;;;;;;;5054419;28;51016;-61
2023/08/08 06:33:51;;;;;;;;;2.00;2.00;;;;;;;;5054230;28;51017;-62
2023/08/08 06:36:17;;;;;;;;;3.67;3.67;;;;;;;;5054145;28;51199;-61
2023/08/08 06:38:42;;;;;;;;;3.00;3.00;;;;;;;;5053974;28;51093;-62
2023/08/08 06:41:08;;;;;;;;;2.33;2.00;;;;;;;;5053934;28;50819;-61
2023/08/08 06:43:33;;;;;;;;;2.33;2.33;;;;;;;;5052620;28;51822;-61
2023/08/08 06:45:58;;;;;;;;;1.67;1.67;;;;;;;;5040028;28;50986;-61
2023/08/08 06:48:24;;;;;;;;;2.33;1.67;;;;;;;;5054173;28;50989;-61
2023/08/08 06:50:49;;;;;;;;;2.67;2.00;;;;;;;;5054300;28;51368;-61
2023/08/08 06:53:14;;;;;;;;;2.67;2.33;;;;;;;;5053809;28;51150;-61
2023/08/08 06:55:39;;;;;;;;;3.33;3.00;;;;;;;;5053536;28;51060;-61
2023/08/08 06:58:05;;;;;;;;;3.67;3.67;;;;;;;;5054070;28;51026;-61
2023/08/08 07:00:30;;;;;;;;;2.00;2.00;;;;;;;;5049557;28;50858;-61
2023/08/08 07:02:55;;;;;;;;;2.00;1.00;;;;;;;;5043962;28;51880;-61
2023/08/08 07:05:22;;;;;;;;;3.33;3.33;;;;;;;;5052121;28;50862;-61
2023/08/08 07:07:48;;;;;;;;;2.00;1.33;;;;;;;;5053328;28;51102;-61
2023/08/08 07:10:13;;;;;;;;;3.00;3.00;;;;;;;;5053293;28;51378;-60
2023/08/08 07:12:38;;;;;;;;;3.00;2.00;;;;;;;;5053595;28;51003;-61
2023/08/08 07:15:04;;;;;;;;;3.00;2.00;;;;;;;;5053070;28;50898;-61
2023/08/08 07:17:30;;;;;;;;;3.00;2.67;;;;;;;;5044715;28;51105;-60
2023/08/08 07:19:56;;;;;;;;;2.33;2.33;;;;;;;;5070295;28;31916;-61
2023/08/08 07:22:22;;;;;;;;;2.67;2.00;;;;;;;;5069740;28;31896;-60
2023/08/08 07:24:47;;;;;;;;;3.00;3.00;;;;;;;;4035242;28;29350478;-61
2023/08/08 07:27:12;;;;;;;;;1.00;1.00;;;;;;;;5053394;28;50866;-60
2023/08/08 07:29:38;;;;;;;;;2.00;2.00;;;;;;;;5053804;28;51049;-60
2023/08/08 07:32:03;;;;;;;;;1.75;1.75;;;;;;;;4611688;28;12746229;-60
2023/08/08 07:34:29;;;;;;;;;2.00;2.00;;;;;;;;5059090;28;51083;-60
2023/08/08 07:36:54;;;;;;;;;5.33;4.00;;;;;;;;5048430;28;51282;-60
2023/08/08 07:39:19;;;;;;;;;2.00;2.00;;;;;;;;5053097;28;50913;-61
2023/08/08 07:41:45;;;;;;;;;4.33;4.00;;;;;;;;5052919;28;51322;-60
2023/08/08 07:44:10;;;;;;;;;2.33;2.33;;;;;;;;5051660;28;51102;-61
2023/08/08 07:46:35;;;;;;;;;2.00;2.00;;;;;;;;5052393;28;52100;-61
2023/08/08 07:49:03;;;;;;;;;2.67;2.00;;;;;;;;5052876;28;50941;-61
2023/08/08 07:51:28;;;;;;;;;3.33;3.00;;;;;;;;5051539;28;51142;-61
2023/08/08 07:53:53;;;;;;;;;3.00;2.33;;;;;;;;5053043;28;50992;-61
2023/08/08 07:56:18;;;;;;;;;1.00;1.00;;;;;;;;5052202;28;52029;-61
2023/08/08 07:58:44;;;;;;;;;4.00;2.67;;;;;;;;5052480;28;51081;-62
2023/08/08 08:01:09;;;;;;;;;3.00;2.00;;;;;;;;5052532;28;50960;-62
2023/08/08 08:03:34;;;;;;;;;2.33;1.33;;;;;;;;5052841;28;50958;-61
2023/08/08 08:06:00;;;;;;;;;2.33;1.33;;;;;;;;5052224;28;52742;-62
2023/08/08 08:08:25;;;;;;;;;1.00;0.00;;;;;;;;5039077;28;51519;-61
2023/08/08 08:10:51;;;;;;;;;1.67;1.67;;;;;;;;5052662;28;51570;-62
2023/08/08 08:13:16;;;;;;;;;1.00;1.00;;;;;;;;5050642;28;51514;-61
2023/08/08 08:15:41;;;;;;;;;1.00;0.67;;;;;;;;5050563;28;51758;-62
2023/08/08 08:18:07;;;;;;;;;1.00;1.00;;;;;;;;5052363;28;51036;-62
2023/08/08 08:21:25;;;;;;;;;2.00;2.00;;;;;;;;2092441;28;68937656;-61
2023/08/08 08:23:50;;;;;;;;;1.00;1.00;;;;;;;;5051049;28;50996;-61
2023/08/08 08:26:16;;;;;;;;;2.67;1.00;;;;;;;;5052486;28;51077;-61
2023/08/08 08:28:41;;;;;;;;;0.33;0.00;;;;;;;;5052158;28;51148;-61
2023/08/08 08:31:07;;;;;;;;;1.33;1.33;;;;;;;;5051897;28;50911;-61
2023/08/08 08:33:32;;;;;;;;;1.00;1.00;;;;;;;;5051993;28;50967;-62
2023/08/08 08:35:57;;;;;;;;;2.33;2.33;;;;;;;;5052073;28;50860;-61
2023/08/08 08:38:22;;;;;;;;;0.67;0.67;;;;;;;;5049718;28;51001;-61
2023/08/08 08:40:48;;;;;;;;;2.00;0.67;;;;;;;;5038854;28;51381;-61
2023/08/08 08:43:15;;;;;;;;;0.33;0.33;;;;;;;;5050744;28;51242;-62
2023/08/08 08:45:42;;;;;;;;;2.40;2.00;;;;;;;;5055414;28;51232;-62
2023/08/08 08:48:10;;;;;;;;;1.00;1.00;;;;;;;;5055774;28;51041;-61
2023/08/08 08:50:36;;;;;;;;;1.33;1.00;;;;;;;;5054081;28;54259;-62
2023/08/08 08:53:01;;;;;;;;;0.00;0.00;;;;;;;;1613291;28;98645690;-62
2023/08/08 08:55:27;;;;;;;;;1.00;1.00;;;;;;;;5054662;28;51258;-62
2023/08/08 08:57:52;;;;;;;;;1.00;1.00;;;;;;;;5054163;28;51016;-62
2023/08/08 09:00:18;;;;;;;;;1.00;1.00;;;;;;;;5055020;28;50864;-61
2023/08/08 09:02:43;;;;;;;;;2.00;1.33;;;;;;;;5057041;28;51128;-61
2023/08/08 09:05:09;;;;;;;;;1.00;1.00;;;;;;;;5070441;28;32235;-62
2023/08/08 09:07:35;;;;;;;;;0.33;0.00;;;;;;;;5071975;28;31822;-62
2023/08/08 09:10:00;;;;;;;;;0.00;0.00;;;;;;;;5055025;28;51249;-62
2023/08/08 09:12:26;;;;;;;;;1.67;1.67;;;;;;;;5055202;28;50891;-61
2023/08/08 09:14:56;;;;;;;;;1.00;1.00;;;;;;;;5041300;28;51975;-62
2023/08/08 09:17:21;;;;;;;;;0.00;0.00;;;;;;;;5055417;28;51098;-63
2023/08/08 09:19:46;;;;;;;;;0.67;0.00;;;;;;;;5054893;28;51048;-62
2023/08/08 09:22:12;;;;;;;;;1.00;1.00;;;;;;;;5055261;28;51080;-65
2023/08/08 09:24:39;;;;;;;;;1.67;1.00;;;;;;;;5070485;28;50966;-63
2023/08/08 09:27:05;;;;;;;;;0.00;0.00;;;;;;;;5053353;28;51140;-63
2023/08/08 09:29:31;;;;;;;;;1.67;1.67;;;;;;;;5053878;28;51053;-62
2023/08/08 09:31:56;;;;;;;;;0.33;0.33;;;;;;;;5047418;28;254831;-62
2023/08/08 09:34:24;;;;;;;;;1.00;1.00;;;;;;;;5054090;28;51999;-62
2023/08/08 09:36:49;;;;;;;;;1.00;1.00;;;;;;;;5051114;28;51233;-63
2023/08/08 09:39:14;;;;;;;;;3.00;3.00;;;;;;;;5069892;28;51155;-61
2023/08/08 09:41:39;;;;;;;;;0.67;0.33;;;;;;;;5054545;28;51175;-62
2023/08/08 09:44:05;;;;;;;;;1.67;0.67;;;;;;;;5054006;28;51080;-64
2023/08/08 09:46:31;;;;;;;;;2.00;1.67;;;;;;;;5052988;28;51037;-62
2023/08/08 09:48:57;;;;;;;;;2.00;2.00;;;;;;;;5053860;28;52305;-62
2023/08/08 09:51:23;;;;;;;;;1.00;1.00;;;;;;;;5054112;28;50853;-62
2023/08/08 09:53:48;;;;;;;;;1.00;1.00;;;;;;;;5053807;28;51962;-61
2023/08/08 09:56:14;;;;;;;;;1.00;1.00;;;;;;;;5053246;28;51082;-62
2023/08/08 09:58:40;;;;;;;;;1.00;1.00;;;;;;;;5054012;28;51068;-61
2023/08/08 10:01:05;;;;;;;;;3.00;3.00;;;;;;;;5054034;28;51805;-62
2023/08/08 10:03:31;;;;;;;;;1.67;1.67;;;;;;;;5053905;28;52018;-61
2023/08/08 10:05:57;;;;;;;;;3.00;3.00;;;;;;;;5045671;28;51203;-61
2023/08/08 10:08:23;;;;;;;;;2.00;2.00;;;;;;;;5053493;28;51032;-62
2023/08/08 10:10:50;;;;;;;;;2.00;2.00;;;;;;;;5053370;28;51370;-62
2023/08/08 10:13:19;;;;;;;;;1.00;1.00;;;;;;;;5054103;28;51911;-62
2023/08/08 10:15:45;;;;;;;;;2.33;1.00;;;;;;;;5046911;28;51167;-62
2023/08/08 10:18:12;;;;;;;;;1.67;1.00;;;;;;;;5069331;28;51307;-61
2023/08/08 10:20:38;;;;;;;;;1.00;1.00;;;;;;;;5052984;28;51328;-61
2023/08/08 10:23:03;;;;;;;;;2.00;2.00;;;;;;;;5052766;28;51883;-63
2023/08/08 10:25:30;;;;;;;;;3.33;3.33;;;;;;;;5069157;28;50870;-62
2023/08/08 10:28:13;;;;;;;;;1.00;1.00;;;;;;;;5054171;28;50969;-61
2023/08/08 10:30:42;;;;;;;;;1.67;1.67;;;;;;;;5052625;28;51067;-62
2023/08/08 10:33:15;;;;;;;;;1.67;1.00;;;;;;;;5052196;28;53981;-62
2023/08/08 10:35:40;;;;;;;;;1.00;1.00;;;;;;;;5053164;28;51116;-62
2023/08/08 10:38:08;;;;;;;;;4.33;3.33;;;;;;;;5051086;28;51646;-61
2023/08/08 10:40:33;;;;;;;;;1.00;1.00;;;;;;;;5053623;28;51034;-62
2023/08/08 10:42:58;;;;;;;;;1.00;1.00;;;;;;;;5053929;28;50979;-61
2023/08/08 10:45:29;;;;;;;;;2.33;2.33;;;;;;;;5054001;28;50932;-61
2023/08/08 10:47:55;;;;;;;;;1.00;1.00;;;;;;;;5053381;28;51050;-61
2023/08/08 10:50:23;;;;;;;;;2.00;2.00;;;;;;;;5053428;28;51007;-61
2023/08/08 10:52:53;;;;;;;;;2.00;2.00;;;;;;;;5066992;28;52332;-62
2023/08/08 10:55:25;;;;;;;;;2.00;2.00;;;;;;;;5051861;28;51283;-61
2023/08/08 10:57:57;;;;;;;;;1.00;1.00;;;;;;;;5052951;28;51041;-60
2023/08/08 11:00:24;;;;;;;;;1.00;1.00;;;;;;;;5052741;28;51237;-61
2023/08/08 11:02:50;;;;;;;;;2.00;2.00;;;;;;;;5052939;28;52759;-62
2023/08/08 11:05:16;;;;;;;;;2.00;2.00;;;;;;;;5052780;28;51239;-62
2023/08/08 11:07:42;;;;;;;;;3.00;2.67;;;;;;;;5051884;28;51029;-62
2023/08/08 11:10:07;;;;;;;;;4.33;3.33;;;;;;;;5050773;28;51193;-62
2023/08/08 11:12:33;;;;;;;;;2.00;2.00;;;;;;;;5052476;28;51807;-62
2023/08/08 11:14:58;;;;;;;;;2.33;2.33;;;;;;;;5052823;28;50955;-62
2023/08/08 11:17:24;;;;;;;;;3.00;3.00;;;;;;;;5053235;28;51056;-61
2023/08/08 11:19:50;;;;;;;;;1.00;1.00;;;;;;;;5052766;28;51207;-61
2023/08/08 11:22:16;;;;;;;;;2.67;2.67;;;;;;;;5052377;28;51040;-61
2023/08/08 11:24:41;;;;;;;;;3.00;3.00;;;;;;;;5052878;28;51103;-61
2023/08/08 11:27:06;;;;;;;;;3.00;2.00;;;;;;;;5038977;28;51011;-61
2023/08/08 11:29:31;;;;;;;;;3.00;3.00;;;;;;;;5053118;28;50902;-61
2023/08/08 11:31:59;;;;;;;;;2.00;2.00;;;;;;;;5051095;28;52788;-61
2023/08/08 11:34:24;;;;;;;;;10.00;9.00;;;;;;;;5052661;28;50858;-60
2023/08/08 11:36:50;;;;;;;;;3.67;3.67;;;;;;;;5052304;28;51133;-60
2023/08/08 11:39:16;;;;;;;;;5.67;5.33;;;;;;;;5051392;28;51335;-60
2023/08/08 11:41:41;;;;;;;;;33.25;29.75;;;;;;;;5049593;28;51195;-60
2023/08/08 11:44:08;;;;;;;;;2.67;2.33;;;;;;;;5051582;28;51143;-60
2023/08/08 11:46:33;;;;;;;;;14.67;14.33;;;;;;;;5052171;28;51524;-60
2023/08/08 11:49:06;;;;;;;;;4.00;3.33;;;;;;;;5044101;28;51412;-59
2023/08/08 11:51:32;;;;;;;;;3.00;3.00;;;;;;;;5042794;28;51711;-59
2023/08/08 11:53:59;;;;;;;;;11.00;11.00;;;;;;;;5039979;28;51473;-59
2023/08/08 11:56:24;;;;;;;;;1.00;1.00;;;;;;;;5039462;28;51353;-60
2023/08/08 11:58:50;;;;;;;;;3.67;3.00;;;;;;;;5037676;28;53578;-60
2023/08/08 12:01:16;;;;;;;;;2.00;1.00;;;;;;;;5039849;28;52251;-59
2023/08/08 12:03:42;;;;;;;;;2.00;2.00;;;;;;;;5044029;28;51188;-61
2023/08/08 12:06:14;;;;;;;;;1.00;1.00;;;;;;;;5037668;28;51097;-61
2023/08/08 12:08:40;;;;;;;;;3.00;2.00;;;;;;;;5037072;28;51109;-61
2023/08/08 12:11:05;;;;;;;;;3.33;3.00;;;;;;;;5033328;28;52253;-61
2023/08/08 12:13:31;;;;;;;;;2.00;2.00;;;;;;;;5037572;28;51301;-62
2023/08/08 12:15:58;;;;;;;;;2.33;2.33;;;;;;;;5037676;28;51406;-62
2023/08/08 12:18:23;;;;;;;;;1.50;1.50;;;;;;;;5036208;28;51742;-61
2023/08/08 12:20:49;;;;;;;;;2.00;2.00;;;;;;;;5037029;28;52474;-61
2023/08/08 12:23:14;;;;;;;;;3.67;2.00;;;;;;;;5032130;28;51159;-59
2023/08/08 12:25:42;;;;;;;;;4.00;3.67;;;;;;;;5040002;28;51242;-60
2023/08/08 12:28:07;;;;;;;;;3.00;3.00;;;;;;;;5043375;28;51451;-60
2023/08/08 12:30:33;;;;;;;;;3.00;2.67;;;;;;;;5038311;28;53114;-59
2023/08/08 12:32:59;;;;;;;;;3.33;2.67;;;;;;;;5040222;28;51167;-59
2023/08/08 12:35:26;;;;;;;;;1.67;1.67;;;;;;;;5032718;28;51139;-60
2023/08/08 12:37:52;;;;;;;;;1.00;1.00;;;;;;;;5037645;28;50998;-61
2023/08/08 12:40:17;;;;;;;;;1.00;1.00;;;;;;;;5040780;28;52572;-60
2023/08/08 12:42:42;;;;;;;;;2.67;2.00;;;;;;;;5036415;28;51227;-60
2023/08/08 12:45:08;;;;;;;;;1.33;1.00;;;;;;;;5037605;28;51348;-60
2023/08/08 12:47:36;;;;;;;;;2.67;2.67;;;;;;;;5035724;28;51583;-62
2023/08/08 12:50:01;;;;;;;;;3.67;3.00;;;;;;;;5037589;28;51263;-59
2023/08/08 12:52:26;;;;;;;;;1.67;1.67;;;;;;;;5045106;28;51381;-60
2023/08/08 12:54:52;;;;;;;;;2.33;1.67;;;;;;;;5041379;28;51110;-61
2023/08/08 12:57:17;;;;;;;;;2.33;2.33;;;;;;;;5039262;28;51335;-60
2023/08/08 12:59:42;;;;;;;;;2.00;2.00;;;;;;;;5038753;28;52569;-59
2023/08/08 13:02:08;;;;;;;;;3.00;3.00;;;;;;;;5035174;28;51118;-59
2023/08/08 13:04:33;;;;;;;;;1.00;1.00;;;;;;;;5041113;28;51345;-59
2023/08/08 13:06:58;;;;;;;;;2.33;2.33;;;;;;;;5039814;28;51372;-59
2023/08/08 13:09:24;;;;;;;;;2.67;2.67;;;;;;;;5035448;28;52564;-59
2023/08/08 13:11:49;;;;;;;;;4.33;4.33;;;;;;;;5040597;28;51224;-60
2023/08/08 13:14:14;;;;;;;;;1.33;1.33;;;;;;;;5040202;28;51084;-61
2023/08/08 13:16:39;;;;;;;;;2.67;2.67;;;;;;;;5038558;28;51515;-59
2023/08/08 13:19:05;;;;;;;;;3.00;3.00;;;;;;;;5038916;28;52949;-60
2023/08/08 13:21:30;;;;;;;;;2.00;2.00;;;;;;;;5037290;28;51560;-61
2023/08/08 13:23:56;;;;;;;;;2.00;2.00;;;;;;;;5039628;28;51661;-61
2023/08/08 13:26:22;;;;;;;;;2.00;2.00;;;;;;;;5037948;28;51114;-60
2023/08/08 13:28:47;;;;;;;;;4.00;4.00;;;;;;;;5038374;28;51716;-61
2023/08/08 13:31:12;;;;;;;;;2.00;2.00;;;;;;;;5040430;28;51741;-60
2023/08/08 13:33:38;;;;;;;;;2.00;2.00;;;;;;;;5040870;28;51098;-60
2023/08/08 13:36:03;;;;;;;;;1.33;1.33;;;;;;;;5038743;28;51150;-60
2023/08/08 13:38:28;;;;;;;;;2.33;2.33;;;;;;;;5039271;28;51150;-60
2023/08/08 13:40:54;;;;;;;;;5.00;3.00;;;;;;;;5041840;28;51790;-60
2023/08/08 13:43:20;;;;;;;;;3.00;3.00;;;;;;;;5044462;27;51142;-60
2023/08/08 13:45:45;;;;;;;;;4.67;4.00;;;;;;;;5043082;28;51543;-61
2023/08/08 13:48:10;;;;;;;;;4.00;4.00;;;;;;;;5042858;28;51956;-60
2023/08/08 13:50:35;;;;;;;;;1.00;1.00;;;;;;;;5041330;28;51223;-60
2023/08/08 13:53:00;;;;;;;;;2.33;2.00;;;;;;;;5040242;28;51588;-60
2023/08/08 13:55:26;;;;;;;;;3.67;2.67;;;;;;;;5041534;28;51237;-60
2023/08/08 13:57:52;;;;;;;;;2.33;2.33;;;;;;;;5031325;28;54272;-61
2023/08/08 14:00:17;;;;;;;;;2.00;2.00;;;;;;;;5041794;28;51804;-61
2023/08/08 14:02:43;;;;;;;;;6.67;6.67;;;;;;;;5039049;28;51189;-62
2023/08/08 14:05:08;;;;;;;;;4.00;3.33;;;;;;;;5043722;28;51200;-61
2023/08/08 14:07:36;;;;;;;;;3.00;3.00;;;;;;;;5042359;28;51129;-60
2023/08/08 14:10:03;;;;;;;;;3.00;3.00;;;;;;;;5040200;28;51358;-61
2023/08/08 14:12:28;;;;;;;;;3.00;3.00;;;;;;;;5041653;28;51144;-61
2023/08/08 14:14:54;;;;;;;;;2.00;2.00;;;;;;;;5041467;28;51115;-61
2023/08/08 14:17:19;;;;;;;;;2.00;2.00;;;;;;;;5042833;28;53183;-60
2023/08/08 14:19:44;;;;;;;;;2.00;2.00;;;;;;;;5040204;28;51375;-60
2023/08/08 14:22:10;;;;;;;;;2.00;2.00;;;;;;;;5037860;28;51234;-59
2023/08/08 14:24:35;;;;;;;;;2.33;2.00;;;;;;;;5037296;28;51296;-60
2023/08/08 14:27:01;;;;;;;;;2.00;1.33;;;;;;;;5033947;28;52100;-61
2023/08/08 14:29:26;;;;;;;;;2.00;2.00;;;;;;;;5039050;28;51383;-60
2023/08/08 14:31:51;;;;;;;;;2.00;2.00;;;;;;;;5040132;28;51283;-60
2023/08/08 14:34:16;;;;;;;;;0.33;0.33;;;;;;;;5040156;28;53135;-60